Time;durP1;ratioP1;P1;durP2;ratioP2;P2;SDS_P1;SDS_P2;PMS_P1;PMS_P2;Temp;Humidity;BMP_temperature;BMP_pressure;BME280_temperature;BME280_humidity;BME280_pressure;Samples;Min_cycle;Max_cycle;Signal;HPM_P1;HPM_P2
2021/12/03 00:00:17;;;;;;;1.00;0.90;;;16.10;66.50;;;;;;5079621;28;33739;-33
2021/12/03 00:02:43;;;;;;;1.10;1.00;;;16.10;66.60;;;;;;5061178;28;25774;-33
2021/12/03 00:05:09;;;;;;;1.30;1.00;;;16.10;66.50;;;;;;5082309;28;20040;-34
2021/12/03 00:07:37;;;;;;;1.13;1.02;;;16.10;66.40;;;;;;5065761;28;20652;-35
2021/12/03 00:10:05;;;;;;;1.10;1.00;;;16.10;66.40;;;;;;5077612;28;20043;-35
2021/12/03 00:12:30;;;;;;;0.93;0.88;;;16.10;67.10;;;;;;5062956;28;26059;-32
2021/12/03 00:14:56;;;;;;;0.80;0.80;;;16.10;66.40;;;;;;5078398;28;36465;-35
2021/12/03 00:17:21;;;;;;;1.15;0.80;;;16.10;66.30;;;;;;5081601;28;20042;-35
2021/12/03 00:19:47;;;;;;;1.00;0.90;;;16.10;66.30;;;;;;5066466;28;23247;-35
2021/12/03 00:22:13;;;;;;;1.05;0.80;;;16.10;66.30;;;;;;5080145;28;20071;-35
2021/12/03 00:24:39;;;;;;;1.45;1.00;;;16.00;66.20;;;;;;5065747;28;20063;-34
2021/12/03 00:27:06;;;;;;;0.77;0.77;;;16.00;66.20;;;;;;5080765;28;20047;-34
2021/12/03 00:29:32;;;;;;;1.85;1.17;;;16.00;66.10;;;;;;5062871;28;36091;-35
2021/12/03 00:31:57;;;;;;;1.10;0.93;;;16.00;66.20;;;;;;5078191;28;20936;-35
2021/12/03 00:34:26;;;;;;;0.90;0.80;;;16.00;66.20;;;;;;5060599;28;20040;-35
2021/12/03 00:36:52;;;;;;;1.00;0.90;;;16.00;66.30;;;;;;5085668;28;20040;-34
2021/12/03 00:39:18;;;;;;;1.15;0.90;;;16.00;66.30;;;;;;5059577;28;26161;-35
2021/12/03 00:41:49;;;;;;;1.55;0.90;;;16.00;66.30;;;;;;5081699;28;36286;-31
2021/12/03 00:44:15;;;;;;;2.00;1.08;;;16.00;66.30;;;;;;5059356;28;24579;-35
2021/12/03 00:46:41;;;;;;;1.00;0.90;;;15.90;66.10;;;;;;5082247;28;20915;-33
2021/12/03 00:49:07;;;;;;;0.80;0.80;;;16.00;66.20;;;;;;5062577;28;20052;-35
2021/12/03 00:51:32;;;;;;;1.40;0.80;;;15.90;66.20;;;;;;5063982;28;20044;-33
2021/12/03 00:53:58;;;;;;;1.52;0.90;;;15.90;66.20;;;;;;5081064;28;20032;-35
2021/12/03 00:56:24;;;;;;;0.75;0.75;;;15.80;66.10;;;;;;5057807;28;34156;-33
2021/12/03 00:59:02;;;;;;;1.08;0.82;;;15.90;66.10;;;;;;5084124;28;20047;-32
2021/12/03 01:01:27;;;;;;;1.00;0.90;;;15.90;66.10;;;;;;5061788;28;20040;-35
2021/12/03 01:03:53;;;;;;;0.70;0.70;;;15.80;66.00;;;;;;5081024;28;20048;-35
2021/12/03 01:06:19;;;;;;;1.23;0.98;;;15.80;66.00;;;;;;5065203;28;20359;-34
2021/12/03 01:08:44;;;;;;;1.45;0.82;;;15.80;66.10;;;;;;5075146;28;20645;-35
2021/12/03 01:11:11;;;;;;;1.30;0.98;;;15.80;66.10;;;;;;5061639;28;20031;-34
2021/12/03 01:13:40;;;;;;;1.25;0.88;;;15.80;66.10;;;;;;5078895;28;20812;-35
2021/12/03 01:16:07;;;;;;;1.42;0.95;;;15.80;66.10;;;;;;5062378;28;21795;-32
2021/12/03 01:18:33;;;;;;;0.82;0.80;;;15.70;66.00;;;;;;5082256;28;20048;-34
2021/12/03 01:21:00;;;;;;;0.95;0.90;;;15.70;66.00;;;;;;5061728;28;20040;-35
2021/12/03 01:23:25;;;;;;;1.38;1.00;;;15.70;66.00;;;;;;5076710;28;20197;-34
2021/12/03 01:25:51;;;;;;;1.08;0.90;;;15.70;66.00;;;;;;5058916;28;33301;-34
2021/12/03 01:28:17;;;;;;;1.15;0.90;;;15.70;66.00;;;;;;5078829;28;20123;-35
2021/12/03 01:30:44;;;;;;;1.35;0.93;;;15.70;65.90;;;;;;5076659;28;21033;-32
2021/12/03 01:33:09;;;;;;;1.17;1.00;;;15.70;65.90;;;;;;5067678;28;26095;-34
2021/12/03 01:35:37;;;;;;;1.08;0.88;;;15.70;66.00;;;;;;5081824;28;20036;-38
2021/12/03 01:38:05;;;;;;;1.65;1.00;;;15.70;66.00;;;;;;5061949;28;31775;-34
2021/12/03 01:40:33;;;;;;;1.02;0.90;;;15.60;66.00;;;;;;5076272;28;20066;-34
2021/12/03 01:43:00;;;;;;;1.33;0.98;;;15.70;65.90;;;;;;5065882;28;22364;-34
2021/12/03 01:45:28;;;;;;;1.17;1.08;;;15.60;65.80;;;;;;5076851;28;20048;-34
2021/12/03 01:47:55;;;;;;;1.02;0.93;;;15.60;65.80;;;;;;5067622;28;21963;-34
2021/12/03 01:50:32;;;;;;;1.90;0.90;;;15.60;65.80;;;;;;5075388;28;20105;-35
2021/12/03 01:52:57;;;;;;;1.35;1.08;;;15.60;65.80;;;;;;5056416;28;25714;-35
2021/12/03 01:55:23;;;;;;;1.02;0.95;;;15.60;65.70;;;;;;5076216;28;20040;-35
2021/12/03 01:57:50;;;;;;;1.13;1.05;;;15.60;65.70;;;;;;5060937;28;20048;-34
2021/12/03 02:00:30;;;;;;;1.00;0.90;;;15.60;65.70;;;;;;5081606;28;20059;-35
2021/12/03 02:02:56;;;;;;;1.35;0.88;;;15.60;65.70;;;;;;5060769;28;25637;-34
2021/12/03 02:05:23;;;;;;;1.83;1.02;;;15.60;65.70;;;;;;5079829;28;20513;-33
2021/12/03 02:07:49;;;;;;;0.95;0.93;;;15.60;65.70;;;;;;5045034;28;29316;-32
2021/12/03 02:10:17;;;;;;;1.45;1.10;;;15.60;65.70;;;;;;5077718;28;20345;-35
2021/12/03 02:12:43;;;;;;;1.15;0.90;;;15.50;65.60;;;;;;5069836;28;20744;-34
2021/12/03 02:15:09;;;;;;;1.10;0.88;;;15.50;65.60;;;;;;5071376;28;20040;-34
2021/12/03 02:17:35;;;;;;;2.22;1.05;;;15.50;65.50;;;;;;5080690;28;20678;-35
2021/12/03 02:20:01;;;;;;;1.40;1.10;;;15.50;65.60;;;;;;5064098;28;23967;-34
2021/12/03 02:22:27;;;;;;;0.95;0.90;;;15.50;65.50;;;;;;5076327;28;33959;-31
2021/12/03 02:24:52;;;;;;;0.80;0.80;;;15.50;65.50;;;;;;5066483;28;20718;-33
2021/12/03 02:27:18;;;;;;;1.00;0.90;;;15.50;65.50;;;;;;5075327;28;20115;-35
2021/12/03 02:29:44;;;;;;;1.50;1.10;;;15.50;65.50;;;;;;5062842;28;20089;-34
2021/12/03 02:32:09;;;;;;;1.05;0.90;;;15.50;65.40;;;;;;5079009;28;20075;-35
2021/12/03 02:34:36;;;;;;;0.90;0.82;;;15.40;65.40;;;;;;5056320;28;20543;-35
2021/12/03 02:37:03;;;;;;;1.17;0.98;;;15.40;65.40;;;;;;5082393;28;20062;-32
2021/12/03 02:39:29;;;;;;;0.90;0.80;;;15.40;65.30;;;;;;5058239;28;20048;-34
2021/12/03 02:41:54;;;;;;;1.70;1.02;;;15.40;65.30;;;;;;5078198;28;20541;-35
2021/12/03 02:44:22;;;;;;;1.23;0.90;;;15.40;65.30;;;;;;5063758;28;20048;-35
2021/12/03 02:46:48;;;;;;;1.80;1.05;;;15.40;65.30;;;;;;5075484;28;20040;-34
2021/12/03 02:49:15;;;;;;;1.05;0.80;;;15.40;65.30;;;;;;5081760;28;34680;-35
2021/12/03 02:51:42;;;;;;;1.05;0.90;;;15.40;65.30;;;;;;5058727;28;20126;-34
2021/12/03 02:54:09;;;;;;;1.10;1.00;;;15.40;65.20;;;;;;5077712;28;20391;-34
2021/12/03 02:56:36;;;;;;;1.00;0.90;;;15.40;65.20;;;;;;5064449;28;26552;-35
2021/12/03 02:59:02;;;;;;;1.30;1.00;;;15.40;65.20;;;;;;5058215;28;20316;-35
2021/12/03 03:01:28;;;;;;;1.73;0.90;;;15.30;65.20;;;;;;5058373;28;20072;-33
2021/12/03 03:03:54;;;;;;;0.80;0.80;;;15.30;65.90;;;;;;5073525;28;31324;-35
2021/12/03 03:06:19;;;;;;;0.95;0.80;;;15.30;65.10;;;;;;5061233;28;20257;-35
2021/12/03 03:08:47;;;;;;;1.25;0.88;;;15.30;65.10;;;;;;5078667;28;20032;-35
2021/12/03 03:11:13;;;;;;;0.95;0.85;;;15.30;65.10;;;;;;5058018;28;20044;-34
2021/12/03 03:13:38;;;;;;;0.77;0.77;;;15.30;65.10;;;;;;5075261;28;20040;-35
2021/12/03 03:16:05;;;;;;;0.95;0.82;;;15.30;65.10;;;;;;5058591;28;20063;-34
2021/12/03 03:18:31;;;;;;;1.60;0.82;;;15.30;65.10;;;;;;5076880;28;32077;-33
2021/12/03 03:20:59;;;;;;;0.88;0.88;;;15.30;65.10;;;;;;5060121;28;20039;-34
2021/12/03 03:23:25;;;;;;;0.98;0.88;;;15.30;65.10;;;;;;5074393;28;20054;-35
2021/12/03 03:25:53;;;;;;;0.80;0.80;;;15.30;65.00;;;;;;5078944;28;20051;-35
2021/12/03 03:28:20;;;;;;;0.77;0.77;;;15.20;64.90;;;;;;5054349;28;20067;-32
2021/12/03 03:30:48;;;;;;;0.70;0.70;;;15.30;65.00;;;;;;5074370;28;20123;-34
2021/12/03 03:33:15;;;;;;;0.70;0.70;;;15.20;64.90;;;;;;5059554;28;20052;-34
2021/12/03 03:35:41;;;;;;;1.30;0.80;;;15.20;64.90;;;;;;5059639;28;20051;-34
2021/12/03 03:38:07;;;;;;;0.60;0.60;;;15.20;64.90;;;;;;5063743;28;22828;-35
2021/12/03 03:40:33;;;;;;;1.00;0.75;;;15.20;64.80;;;;;;5077699;28;20058;-34
2021/12/03 03:43:01;;;;;;;1.05;0.93;;;15.20;64.80;;;;;;5061084;28;20044;-34
2021/12/03 03:45:29;;;;;;;0.80;0.80;;;15.20;64.80;;;;;;5077022;28;35957;-33
2021/12/03 03:47:54;;;;;;;0.95;0.80;;;15.20;64.90;;;;;;5058513;28;20044;-35
2021/12/03 03:50:21;;;;;;;1.20;0.90;;;15.20;64.80;;;;;;5081800;28;20047;-34
2021/12/03 03:52:49;;;;;;;1.25;0.90;;;15.20;64.80;;;;;;5060466;28;23035;-34
2021/12/03 03:55:16;;;;;;;0.95;0.73;;;15.10;64.80;;;;;;5078293;28;20046;-34
2021/12/03 03:57:43;;;;;;;0.82;0.70;;;15.20;64.80;;;;;;5063748;28;23011;-35
2021/12/03 04:00:13;;;;;;;2.05;0.90;;;15.10;64.80;;;;;;5072331;28;36171;-34
2021/12/03 04:02:40;;;;;;;0.90;0.80;;;15.10;64.70;;;;;;5064392;28;21057;-31
2021/12/03 04:05:06;;;;;;;0.73;0.52;;;15.10;64.70;;;;;;5078696;28;20039;-35
2021/12/03 04:07:32;;;;;;;0.90;0.70;;;15.10;64.70;;;;;;5075446;28;20087;-33
2021/12/03 04:09:57;;;;;;;2.03;0.80;;;15.10;64.70;;;;;;5060985;28;20399;-34
2021/12/03 04:12:23;;;;;;;0.63;0.60;;;15.10;64.60;;;;;;5078909;28;20480;-33
2021/12/03 04:14:49;;;;;;;0.93;0.70;;;15.10;64.60;;;;;;5064312;28;31465;-34
2021/12/03 04:17:14;;;;;;;1.50;0.80;;;15.10;64.60;;;;;;5079962;28;20115;-35
2021/12/03 04:19:43;;;;;;;1.08;0.80;;;15.10;64.50;;;;;;5065326;28;25385;-34
2021/12/03 04:22:09;;;;;;;1.10;1.00;;;15.00;64.50;;;;;;5085188;28;20048;-32
2021/12/03 04:24:34;;;;;;;0.85;0.85;;;15.00;64.40;;;;;;5063568;28;22900;-32
2021/12/03 04:27:00;;;;;;;0.77;0.77;;;15.00;64.50;;;;;;5082027;28;20463;-33
2021/12/03 04:29:25;;;;;;;1.50;0.90;;;15.00;64.60;;;;;;5060491;28;34388;-35
2021/12/03 04:31:51;;;;;;;0.75;0.75;;;15.00;64.50;;;;;;5082092;28;21121;-35
2021/12/03 04:34:17;;;;;;;0.88;0.70;;;15.00;64.50;;;;;;5068619;28;20039;-34
2021/12/03 04:36:42;;;;;;;1.00;0.70;;;15.00;64.50;;;;;;5077556;28;20041;-34
2021/12/03 04:39:08;;;;;;;1.10;0.80;;;15.00;64.50;;;;;;5080318;28;20035;-33
2021/12/03 04:41:33;;;;;;;1.08;0.70;;;15.00;64.40;;;;;;5063794;28;36145;-36
2021/12/03 04:43:59;;;;;;;0.73;0.73;;;15.00;65.10;;;;;;5080754;28;20122;-34
2021/12/03 04:46:25;;;;;;;1.83;0.60;;;15.00;64.40;;;;;;5064572;28;25448;-34
2021/12/03 04:48:50;;;;;;;1.13;0.80;;;14.90;64.30;;;;;;5077418;28;20039;-34
2021/12/03 04:51:16;;;;;;;0.70;0.68;;;14.90;64.30;;;;;;5065959;28;20169;-33
2021/12/03 04:53:42;;;;;;;1.67;0.82;;;14.90;64.30;;;;;;5078637;28;20066;-34
2021/12/03 04:56:08;;;;;;;1.15;0.70;;;14.90;64.20;;;;;;5061157;28;29809;-34
2021/12/03 04:58:33;;;;;;;1.40;1.00;;;14.90;64.30;;;;;;5064336;28;20054;-34
2021/12/03 05:00:59;;;;;;;1.48;1.10;;;14.90;64.30;;;;;;5053800;28;20087;-34
2021/12/03 05:03:28;;;;;;;0.80;0.80;;;14.90;64.20;;;;;;5080255;28;20510;-34
2021/12/03 05:05:56;;;;;;;0.93;0.60;;;14.90;64.20;;;;;;5062738;28;20104;-34
2021/12/03 05:08:23;;;;;;;1.23;0.85;;;14.90;64.20;;;;;;5079295;28;20036;-33
2021/12/03 05:10:49;;;;;;;1.33;0.73;;;14.80;64.10;;;;;;5066101;28;35720;-32
2021/12/03 05:13:16;;;;;;;0.95;0.65;;;14.80;64.10;;;;;;5070845;28;20476;-34
2021/12/03 05:15:43;;;;;;;0.60;0.60;;;14.80;64.10;;;;;;5081021;28;20044;-35
2021/12/03 05:18:11;;;;;;;0.70;0.65;;;14.80;64.10;;;;;;5058878;28;21159;-34
2021/12/03 05:20:37;;;;;;;1.30;0.75;;;14.80;64.20;;;;;;5075347;28;20096;-34
2021/12/03 05:23:03;;;;;;;1.00;0.80;;;14.80;64.20;;;;;;5063221;28;20052;-34
2021/12/03 05:25:30;;;;;;;0.93;0.80;;;14.70;64.10;;;;;;5076107;28;33598;-34
2021/12/03 05:27:56;;;;;;;0.82;0.65;;;14.70;64.10;;;;;;5061389;28;24470;-34
2021/12/03 05:30:23;;;;;;;1.25;0.80;;;14.70;64.20;;;;;;5078284;28;20402;-31
2021/12/03 05:32:49;;;;;;;0.70;0.60;;;14.70;64.20;;;;;;5063382;28;23134;-34
2021/12/03 05:35:15;;;;;;;0.70;0.70;;;14.70;64.10;;;;;;5080015;28;20035;-32
2021/12/03 05:37:42;;;;;;;1.17;0.85;;;14.70;64.10;;;;;;5061453;28;23960;-35
2021/12/03 05:40:09;;;;;;;0.80;0.60;;;14.70;64.00;;;;;;5080055;28;20033;-34
2021/12/03 05:42:36;;;;;;;0.80;0.63;;;14.70;64.00;;;;;;5064625;28;27772;-35
2021/12/03 05:45:03;;;;;;;0.73;0.70;;;14.70;64.00;;;;;;5072848;28;20088;-34
2021/12/03 05:47:29;;;;;;;0.70;0.70;;;14.70;64.00;;;;;;5069182;28;22532;-31
2021/12/03 05:49:55;;;;;;;1.40;1.02;;;14.70;63.90;;;;;;5075227;28;20387;-33
2021/12/03 05:52:20;;;;;;;0.73;0.63;;;14.70;63.80;;;;;;5077767;28;36146;-33
2021/12/03 05:54:46;;;;;;;1.42;0.70;;;14.70;63.70;;;;;;5064306;28;24861;-34
2021/12/03 05:57:12;;;;;;;0.70;0.70;;;14.70;63.70;;;;;;5076807;28;20525;-31
2021/12/03 05:59:37;;;;;;;0.95;0.73;;;14.80;63.70;;;;;;5065433;28;25425;-34
2021/12/03 06:02:03;;;;;;;0.60;0.60;;;14.80;63.60;;;;;;5078830;28;20760;-35
2021/12/03 06:04:29;;;;;;;0.60;0.60;;;14.80;64.20;;;;;;5060979;28;20059;-36
2021/12/03 06:06:55;;;;;;;1.10;0.57;;;14.80;63.40;;;;;;5077857;28;33578;-34
2021/12/03 06:09:21;;;;;;;1.13;0.68;;;14.90;63.40;;;;;;5060373;28;20044;-34
2021/12/03 06:11:47;;;;;;;1.42;0.70;;;14.90;63.30;;;;;;5075773;28;20055;-34
2021/12/03 06:14:13;;;;;;;0.93;0.80;;;14.90;63.20;;;;;;5066016;28;25785;-34
2021/12/03 06:16:39;;;;;;;0.90;0.80;;;14.90;63.10;;;;;;5077048;28;20040;-35
2021/12/03 06:19:04;;;;;;;0.60;0.60;;;14.90;63.10;;;;;;5063335;28;20050;-33
2021/12/03 06:21:30;;;;;;;0.65;0.60;;;14.90;63.10;;;;;;5075326;28;34738;-34
2021/12/03 06:23:56;;;;;;;1.27;0.80;;;15.00;63.10;;;;;;5060020;28;20047;-34
2021/12/03 06:26:21;;;;;;;0.95;0.70;;;15.00;63.00;;;;;;5065777;28;22642;-35
2021/12/03 06:28:47;;;;;;;0.75;0.75;;;15.00;63.00;;;;;;5080448;28;20115;-34
2021/12/03 06:31:13;;;;;;;0.85;0.70;;;15.00;62.80;;;;;;5059231;28;24406;-32
2021/12/03 06:33:38;;;;;;;0.65;0.63;;;15.00;63.50;;;;;;5079301;28;20407;-34
2021/12/03 06:36:04;;;;;;;0.70;0.70;;;15.00;62.70;;;;;;5058694;28;33899;-35
2021/12/03 06:38:31;;;;;;;1.42;0.85;;;15.00;62.80;;;;;;5077729;28;20032;-34
2021/12/03 06:40:57;;;;;;;0.55;0.55;;;15.10;62.80;;;;;;5046331;28;25326;-32
2021/12/03 06:43:22;;;;;;;0.65;0.65;;;15.10;62.80;;;;;;5075848;28;20051;-35
2021/12/03 06:45:48;;;;;;;0.82;0.70;;;15.10;62.70;;;;;;5060537;28;20048;-34
2021/12/03 06:48:15;;;;;;;0.93;0.50;;;15.10;62.60;;;;;;5093721;28;33896;-34
2021/12/03 06:50:43;;;;;;;0.47;0.47;;;15.20;62.60;;;;;;5058430;28;20546;-35
2021/12/03 06:53:11;;;;;;;0.73;0.73;;;15.20;62.50;;;;;;5075262;28;20040;-32
2021/12/03 06:58:09;;;;;;;2.05;0.80;;;15.30;62.50;;;;;;5077935;28;20452;-35
2021/12/03 07:00:35;;;;;;;3.17;0.77;;;15.30;62.40;;;;;;5080246;28;20048;-34
2021/12/03 07:03:01;;;;;;;3.15;0.95;;;15.30;62.40;;;;;;5059683;28;28969;-34
2021/12/03 07:05:26;;;;;;;1.25;0.90;;;15.40;62.50;;;;;;5074858;28;20060;-35
2021/12/03 07:07:52;;;;;;;2.13;0.80;;;15.40;62.40;;;;;;5064509;28;20047;-34
2021/12/03 07:10:18;;;;;;;0.82;0.70;;;15.40;62.30;;;;;;5078585;28;20040;-32
2021/12/03 07:12:44;;;;;;;1.05;0.63;;;15.50;62.20;;;;;;5061712;28;20071;-34
2021/12/03 07:15:10;;;;;;;2.45;0.90;;;15.50;62.10;;;;;;5078984;28;20048;-32
2021/12/03 07:17:35;;;;;;;1.02;0.85;;;15.50;62.10;;;;;;5059081;28;36097;-33
2021/12/03 07:20:01;;;;;;;1.23;0.60;;;15.50;62.00;;;;;;5076123;28;20047;-34
2021/12/03 07:22:29;;;;;;;1.63;0.60;;;15.50;62.10;;;;;;5063791;28;20522;-33
2021/12/03 07:24:55;;;;;;;1.23;0.82;;;15.50;62.10;;;;;;5075150;28;20028;-35
2021/12/03 07:27:21;;;;;;;1.52;0.80;;;15.50;62.10;;;;;;5059965;28;21744;-35
2021/12/03 07:29:48;;;;;;;1.40;0.60;;;15.50;62.10;;;;;;5079663;28;20040;-34
2021/12/03 07:32:19;;;;;;;0.63;0.60;;;15.60;62.20;;;;;;5063150;28;34828;-32
2021/12/03 07:34:44;;;;;;;;;;;15.60;62.40;;;;;;5078181;28;20070;-35
2021/12/03 07:37:11;;;;;;;1.10;0.80;;;15.60;62.00;;;;;;5077377;28;20450;-32
2021/12/03 07:39:37;;;;;;;2.22;0.98;;;15.60;62.10;;;;;;5055029;28;22165;-34
2021/12/03 07:42:03;;;;;;;2.42;0.82;;;15.70;62.10;;;;;;5081266;28;20135;-35
2021/12/03 07:44:29;;;;;;;1.33;0.73;;;15.70;62.10;;;;;;5062632;28;31076;-35
2021/12/03 07:46:54;;;;;;;3.28;1.10;;;15.70;62.10;;;;;;5079700;28;20032;-32
2021/12/03 07:49:22;;;;;;;1.58;0.93;;;15.80;62.10;;;;;;5051071;28;20052;-36
2021/12/03 07:51:47;;;;;;;3.17;1.00;;;15.80;62.10;;;;;;5079253;28;20586;-35
2021/12/03 07:54:13;;;;;;;1.98;0.93;;;15.80;62.00;;;;;;5065393;28;20090;-32
2021/12/03 07:56:39;;;;;;;1.85;1.00;;;15.90;62.10;;;;;;5081527;28;20426;-33
2021/12/03 07:59:05;;;;;;;1.73;1.20;;;15.90;62.00;;;;;;5063617;28;36582;-35
2021/12/03 08:01:32;;;;;;;1.30;0.90;;;15.90;62.10;;;;;;5068040;28;20067;-35
2021/12/03 08:03:58;;;;;;;2.08;1.20;;;15.90;62.00;;;;;;5046147;28;20044;-35
2021/12/03 08:06:24;;;;;;;1.70;1.05;;;16.00;62.00;;;;;;5058965;28;20032;-35
2021/12/03 08:08:49;;;;;;;1.80;1.00;;;16.00;61.90;;;;;;5058818;28;20056;-32
2021/12/03 08:11:15;;;;;;;1.48;1.10;;;16.00;62.00;;;;;;5052431;28;24279;-35
2021/12/03 08:13:41;;;;;;;1.67;0.90;;;16.00;61.90;;;;;;5056672;28;32130;-35
2021/12/03 08:16:06;;;;;;;1.60;0.93;;;16.00;61.90;;;;;;5042688;28;20305;-32
2021/12/03 08:18:32;;;;;;;1.05;0.98;;;16.00;61.90;;;;;;5061776;28;20043;-35
2021/12/03 08:20:58;;;;;;;0.98;0.88;;;16.10;62.00;;;;;;5026858;28;20040;-36
2021/12/03 08:23:24;;;;;;;3.55;1.20;;;16.10;62.00;;;;;;5062741;28;20036;-33
2021/12/03 08:25:49;;;;;;;1.42;1.15;;;16.10;62.00;;;;;;5042931;28;20067;-35
2021/12/03 08:28:15;;;;;;;2.38;1.40;;;16.10;62.00;;;;;;5057575;28;26346;-36
2021/12/03 08:30:41;;;;;;;2.60;1.30;;;16.10;62.00;;;;;;5043319;28;25767;-32
2021/12/03 08:33:06;;;;;;;1.42;1.20;;;16.10;62.00;;;;;;5054911;28;20114;-35
2021/12/03 08:35:32;;;;;;;3.05;1.50;;;16.10;62.00;;;;;;5043819;28;20046;-32
2021/12/03 08:37:58;;;;;;;1.90;1.40;;;16.10;62.00;;;;;;5063578;28;20111;-32
2021/12/03 08:40:24;;;;;;;2.13;1.65;;;16.20;61.90;;;;;;5040630;28;23173;-33
2021/12/03 08:42:51;;;;;;;2.20;1.40;;;16.20;62.00;;;;;;5057879;28;26147;-35
2021/12/03 08:45:18;;;;;;;1.48;1.38;;;16.20;61.90;;;;;;5062752;28;20752;-35
2021/12/03 08:47:57;;;;;;;1.75;1.33;;;16.20;61.90;;;;;;5037878;28;20075;-34
2021/12/03 08:50:29;;;;;;;2.63;1.63;;;16.20;61.90;;;;;;5062471;28;20136;-35
2021/12/03 08:55:41;;;;;;;3.45;1.50;;;16.30;61.90;;;;;;5051539;28;33844;-35
2021/12/03 08:58:09;;;;;;;2.85;1.50;;;16.30;61.90;;;;;;5043526;28;20037;-32
2021/12/03 09:00:36;;;;;;;3.08;1.77;;;16.30;61.80;;;;;;5062584;28;20036;-33
2021/12/03 09:03:01;;;;;;;1.88;1.60;;;16.30;61.90;;;;;;5059382;28;20155;-33
2021/12/03 09:05:30;;;;;;;2.63;1.77;;;16.30;61.80;;;;;;5061125;28;20048;-34
2021/12/03 09:07:56;;;;;;;2.03;1.55;;;16.30;61.80;;;;;;5063171;28;20040;-35
2021/12/03 09:10:22;;;;;;;2.30;1.52;;;16.30;61.70;;;;;;5073543;28;33961;-34
2021/12/03 09:12:47;;;;;;;2.67;1.70;;;16.30;61.70;;;;;;5064394;28;20046;-35
2021/12/03 09:15:16;;;;;;;2.85;1.70;;;16.40;61.80;;;;;;5075612;28;20043;-34
2021/12/03 09:17:58;;;;;;;4.80;2.17;;;16.40;61.60;;;;;;5061310;28;20032;-35
2021/12/03 09:20:37;;;;;;;4.90;2.05;;;16.40;61.40;;;;;;5074536;28;20088;-35
2021/12/03 09:23:07;;;;;;;7.47;2.55;;;16.30;61.20;;;;;;5060237;28;26097;-34
2021/12/03 09:25:35;;;;;;;5.18;1.80;;;16.40;62.00;;;;;;5078472;28;20078;-35
2021/12/03 09:28:05;;;;;;;5.13;2.20;;;16.40;61.20;;;;;;5061587;28;20048;-34
2021/12/03 09:30:40;;;;;;;3.60;1.80;;;16.40;61.20;;;;;;5076670;28;20052;-33
2021/12/03 09:33:08;;;;;;;2.22;1.85;;;16.40;61.20;;;;;;5056177;28;20537;-34
2021/12/03 09:35:36;;;;;;;3.88;2.30;;;16.40;61.20;;;;;;5095607;27;20040;-36
2021/12/03 09:38:02;;;;;;;2.60;1.75;;;16.40;61.20;;;;;;5069005;28;35963;-33
2021/12/03 09:40:30;;;;;;;4.65;1.85;;;16.40;61.20;;;;;;5070966;28;20032;-34
2021/12/03 09:42:56;;;;;;;4.05;1.95;;;16.50;61.30;;;;;;5078105;28;20051;-35
2021/12/03 09:45:22;;;;;;;2.30;1.83;;;16.50;61.20;;;;;;5056645;28;20044;-35
2021/12/03 09:47:49;;;;;;;4.35;1.83;;;16.50;61.10;;;;;;5075927;28;20040;-34
2021/12/03 09:50:15;;;;;;;4.78;1.90;;;16.50;61.60;;;;;;5067412;28;20051;-35
2021/12/03 09:55:26;;;;;;;2.65;1.98;;;16.50;61.20;;;;;;5064406;28;20569;-34
2021/12/03 10:17:27;;;;;;;3.13;1.63;;;16.60;61.00;;;;;;5059518;28;20396;-33
2021/12/03 10:43:58;;;;;;;5.00;1.95;;;16.70;61.40;;;;;;5074711;28;20426;-35
2021/12/03 10:49:03;;;;;;;4.40;1.80;;;16.70;61.50;;;;;;5075751;28;33872;-35
2021/12/03 10:51:55;;;;;;;3.63;1.80;;;16.70;61.40;;;;;;5075089;28;20093;-32
2021/12/03 10:57:37;;;;;;;5.38;1.98;;;16.70;61.70;;;;;;5060059;28;27286;-36
2021/12/03 11:04:01;;;;;;;4.68;1.73;;;16.70;62.00;;;;;;5061992;28;34237;-34
2021/12/03 11:30:27;;;;;;;5.05;1.73;;;16.90;65.30;;;;;;5055566;28;21994;-35
2021/12/03 11:36:00;;;;;;;4.82;2.05;;;16.90;66.60;;;;;;5061222;28;20048;-35
2021/12/03 11:47:18;;;;;;;3.80;1.90;;;16.90;68.00;;;;;;5070618;28;20047;-36
2021/12/03 12:10:39;;;;;;;10.20;2.50;;;17.00;66.70;;;;;;5074263;28;20136;-37
2021/12/03 12:23:09;;;;;;;7.43;2.10;;;17.00;67.30;;;;;;5057251;28;20485;-35
2021/12/03 12:34:36;;;;;;;8.65;2.13;;;17.00;67.80;;;;;;5065684;28;20044;-37
2021/12/03 12:45:15;;;;;;;6.43;2.47;;;17.00;68.20;;;;;;5081008;28;20044;-36
2021/12/03 12:57:28;;;;;;;9.23;1.92;;;17.00;68.30;;;;;;5077739;28;33607;-37
2021/12/03 13:02:50;;;;;;;8.75;2.20;;;17.00;68.10;;;;;;5079286;28;20420;-37
2021/12/03 13:24:01;;;;;;;5.35;1.90;;;17.10;68.60;;;;;;5080943;28;31782;-37
2021/12/03 13:26:58;;;;;;;4.47;1.63;;;17.10;68.80;;;;;;5076513;28;20086;-36
2021/12/03 14:10:49;;;;;;;7.78;2.67;;;16.80;66.30;;;;;;5077666;28;20048;-37
2021/12/03 14:28:58;;;;;;;3.65;1.83;;;16.90;71.20;;;;;;5064953;28;20089;-37
2021/12/03 14:31:51;;;;;;;7.80;2.10;;;16.90;71.60;;;;;;5082743;28;20078;-35
2021/12/03 14:54:28;;;;;;;4.55;1.98;;;17.10;71.90;;;;;;5060240;28;20045;-37
2021/12/03 14:57:44;;;;;;;4.75;2.25;;;17.10;70.80;;;;;;5078247;28;20032;-35
2021/12/03 15:00:35;;;;;;;4.95;2.03;;;17.10;69.70;;;;;;5060982;28;20040;-36
2021/12/03 15:03:55;;;;;;;4.43;2.22;;;17.10;69.40;;;;;;5071115;28;36652;-33
2021/12/03 15:06:12;;;;;;;4.80;2.25;;;17.10;68.70;;;;;;5058854;28;20059;-37
2021/12/03 15:09:06;;;;;;;5.55;2.00;;;17.00;68.30;;;;;;5077984;28;20510;-37
2021/12/03 15:22:17;;;;;;;5.70;1.80;;;17.10;66.80;;;;;;5072717;28;20128;-36
2021/12/03 15:57:12;;;;;;;3.88;1.90;;;17.10;65.50;;;;;;5060058;28;20044;-36
2021/12/03 16:06:04;;;;;;;2.15;1.73;;;17.20;64.80;;;;;;5080456;28;20056;-34
2021/12/03 16:10:48;;;;;;;2.50;1.70;;;17.20;64.10;;;;;;5080209;28;20052;-36
2021/12/03 16:13:27;;;;;;;2.47;1.95;;;17.20;64.00;;;;;;5063067;28;20044;-36
2021/12/03 16:24:19;;;;;;;3.25;1.60;;;17.20;63.40;;;;;;5083468;28;23166;-36
2021/12/03 16:27:02;;;;;;;4.80;1.70;;;17.20;63.30;;;;;;5083103;28;20058;-36
2021/12/03 16:46:20;;;;;;;3.15;1.55;;;17.40;62.20;;;;;;5078966;28;20044;-37
2021/12/03 16:54:25;;;;;;;2.95;1.60;;;17.40;62.10;;;;;;5062644;28;20052;-32
2021/12/03 16:56:50;;;;;;;2.13;1.40;;;17.30;62.00;;;;;;5077874;28;31728;-36
2021/12/03 16:59:15;;;;;;;1.75;1.23;;;17.30;62.00;;;;;;5063360;28;25268;-36
2021/12/03 17:01:48;;;;;;;1.95;1.25;;;17.40;62.00;;;;;;5080325;28;20966;-37
2021/12/03 17:04:39;;;;;;;1.63;1.05;;;17.30;62.00;;;;;;5079201;28;20044;-36
2021/12/03 17:12:34;;;;;;;1.35;1.25;;;17.40;62.10;;;;;;5079603;28;20052;-34
2021/12/03 17:15:25;;;;;;;1.42;1.20;;;17.40;61.90;;;;;;5063047;28;20052;-37
2021/12/03 17:18:43;;;;;;;1.52;1.42;;;17.30;61.80;;;;;;5062875;28;20101;-36
2021/12/03 17:32:22;;;;;;;2.97;1.60;;;17.30;61.00;;;;;;5048486;28;20479;-36
2021/12/03 17:45:50;;;;;;;2.05;1.52;;;17.40;60.90;;;;;;5082845;28;20438;-35
2021/12/03 17:51:10;;;;;;;1.67;1.58;;;17.40;60.90;;;;;;5075120;28;20127;-37
2021/12/03 17:56:10;;;;;;;1.95;1.35;;;17.30;60.70;;;;;;5076924;28;20052;-37
2021/12/03 17:58:39;;;;;;;2.80;1.48;;;17.40;60.70;;;;;;5074763;28;20040;-36
2021/12/03 18:01:22;;;;;;;1.88;1.58;;;17.40;60.80;;;;;;5070588;28;20055;-36
2021/12/03 18:03:54;;;;;;;1.65;1.55;;;17.40;60.70;;;;;;5053519;28;20096;-35
2021/12/03 18:06:47;;;;;;;1.67;1.58;;;17.30;60.70;;;;;;5072481;28;36584;-34
2021/12/03 18:17:32;;;;;;;3.42;1.88;;;17.40;60.40;;;;;;5073869;28;20500;-35
2021/12/03 18:43:17;;;;;;;5.25;1.85;;;17.40;60.40;;;;;;5056133;28;20051;-32
2021/12/03 18:50:04;;;;;;;2.08;1.88;;;17.30;60.10;;;;;;5053214;28;31685;-33
2021/12/03 18:55:47;;;;;;;2.60;1.90;;;17.30;60.00;;;;;;5055589;28;20051;-35
2021/12/03 18:58:13;;;;;;;2.90;1.58;;;17.30;60.20;;;;;;5073186;28;20131;-33
2021/12/03 19:00:42;;;;;;;1.70;1.60;;;17.30;60.10;;;;;;5055722;28;21314;-36
2021/12/03 19:03:31;;;;;;;1.90;1.80;;;17.30;60.20;;;;;;5072996;28;36021;-36
2021/12/03 19:08:43;;;;;;;1.95;1.80;;;17.30;60.10;;;;;;5075557;28;20104;-36
2021/12/03 19:11:32;;;;;;;2.08;1.80;;;17.30;60.20;;;;;;5058448;28;20044;-34
2021/12/03 19:13:58;;;;;;;1.98;1.88;;;17.30;60.10;;;;;;5075844;28;20050;-35
2021/12/03 19:16:24;;;;;;;2.33;1.73;;;17.30;60.00;;;;;;5056163;28;33709;-34
2021/12/03 19:18:53;;;;;;;2.10;2.00;;;17.30;59.90;;;;;;5074711;28;20462;-34
2021/12/03 19:21:23;;;;;;;2.70;1.75;;;17.30;59.80;;;;;;5057325;28;22404;-34
2021/12/03 19:23:58;;;;;;;1.70;1.60;;;17.30;59.70;;;;;;5073335;28;20050;-35
2021/12/03 19:26:27;;;;;;;2.83;2.00;;;17.30;59.70;;;;;;5057353;28;22219;-36
2021/12/03 19:28:54;;;;;;;2.03;1.75;;;17.30;59.60;;;;;;5073153;28;20043;-35
2021/12/03 19:31:24;;;;;;;1.90;1.80;;;17.30;59.60;;;;;;5070274;28;36473;-35
2021/12/03 19:33:50;;;;;;;2.10;1.90;;;17.30;59.50;;;;;;5066616;28;20093;-32
2021/12/03 19:36:22;;;;;;;2.10;1.90;;;17.30;59.60;;;;;;5072673;28;20123;-35
2021/12/03 19:38:49;;;;;;;2.70;1.70;;;17.30;59.50;;;;;;5063666;28;20491;-35
2021/12/03 19:41:19;;;;;;;2.10;1.88;;;17.30;59.60;;;;;;5077962;28;20044;-34
2021/12/03 19:43:48;;;;;;;2.75;2.10;;;17.30;59.50;;;;;;5064806;28;25087;-35